Time;durP1;ratioP1;P1;durP2;ratioP2;P2;SDS_P1;SDS_P2;PMS_P1;PMS_P2;Temp;Humidity;BMP_temperature;BMP_pressure;BME280_temperature;BME280_humidity;BME280_pressure;Samples;Min_cycle;Max_cycle;Signal;HPM_P1;HPM_P2
2022/03/22 00:00:13;;;;;;;215.60;88.25;;;;;;;-0.53;51.26;102453.55;1998292;88;27707;-70
2022/03/22 00:03:17;;;;;;;203.98;89.92;;;;;;;-0.53;51.05;102448.28;1997311;88;27656;-71
2022/03/22 00:06:20;;;;;;;219.70;91.20;;;;;;;-0.55;51.14;102456.55;2023389;88;31235;-71
2022/03/22 00:09:21;;;;;;;207.32;85.72;;;;;;;-0.56;51.44;102460.02;2023069;88;32968;-71
2022/03/22 00:12:23;;;;;;;209.43;89.95;;;;;;;-0.60;51.56;102458.13;2028514;87;30168;-70
2022/03/22 00:15:25;;;;;;;213.40;88.00;;;;;;;-0.62;52.00;102454.16;2044907;86;27676;-70
2022/03/22 00:18:29;;;;;;;198.60;82.27;;;;;;;-0.63;52.09;102460.26;2042274;86;29469;-71
2022/03/22 00:21:30;;;;;;;192.92;83.15;;;;;;;-0.65;52.57;102463.27;2092139;84;31038;-71
2022/03/22 00:24:32;;;;;;;187.43;81.50;;;;;;;-0.64;52.61;102462.42;2104825;84;32945;-71
2022/03/22 00:27:51;;;;;;;180.42;78.25;;;;;;;-0.65;52.61;102455.77;2072830;84;29353;-70
2022/03/22 00:30:37;;;;;;;182.93;78.20;;;;;;;-0.67;53.35;102452.22;2067831;86;27703;-70
2022/03/22 00:33:39;;;;;;;166.77;79.25;;;;;;;-0.64;53.31;102454.92;2071381;84;28700;-70
2022/03/22 00:36:45;;;;;;;185.35;83.22;;;;;;;-0.64;53.43;102451.89;2072091;84;31826;-70
2022/03/22 00:39:46;;;;;;;188.65;85.83;;;;;;;-0.62;53.39;102451.92;2071221;86;33030;-70
2022/03/22 00:42:49;;;;;;;190.62;86.15;;;;;;;-0.62;53.73;102451.92;2091856;84;30090;-70
2022/03/22 00:45:50;;;;;;;194.25;82.60;;;;;;;-0.60;53.64;102454.63;2106589;84;27817;-70
2022/03/22 00:48:53;;;;;;;167.13;78.50;;;;;;;-0.62;53.43;102455.88;2103705;84;28667;-70
2022/03/22 00:51:54;;;;;;;175.68;77.32;;;;;;;-0.65;53.25;102452.73;2089716;84;31987;-71
2022/03/22 00:54:56;;;;;;;164.90;77.78;;;;;;;-0.66;53.24;102454.02;2070879;86;34291;-70
2022/03/22 00:57:59;;;;;;;168.32;79.05;;;;;;;-0.71;53.12;102445.06;2078835;84;29440;-71
2022/03/22 01:01:01;;;;;;;181.82;78.45;;;;;;;-0.75;53.30;102441.45;2071240;86;27628;-71
2022/03/22 01:04:04;;;;;;;183.03;80.10;;;;;;;-0.79;53.27;102444.39;2071246;84;28799;-71
2022/03/22 01:07:06;;;;;;;172.25;77.58;;;;;;;-0.84;53.38;102439.42;2070008;84;31836;-71
2022/03/22 01:10:10;;;;;;;158.18;74.97;;;;;;;-0.87;53.26;102441.95;2069749;86;33745;-71
2022/03/22 01:13:12;;;;;;;173.50;78.67;;;;;;;-0.93;53.32;102441.33;2094341;84;30127;-71
2022/03/22 01:16:17;;;;;;;168.72;77.40;;;;;;;-0.96;53.66;102441.22;2105089;84;27702;-71
2022/03/22 01:19:21;;;;;;;168.30;73.40;;;;;;;-0.98;53.67;102441.59;2071262;86;32650;-70
2022/03/22 01:22:22;;;;;;;154.93;72.70;;;;;;;-1.02;53.77;102446.27;2071369;84;31113;-71
2022/03/22 01:25:27;;;;;;;167.15;74.67;;;;;;;-1.05;53.89;102439.59;2071276;84;32968;-71
2022/03/22 01:28:28;;;;;;;159.63;73.07;;;;;;;-1.08;53.97;102438.20;2093349;84;29349;-71
2022/03/22 01:31:30;;;;;;;184.18;82.10;;;;;;;-1.11;54.17;102435.02;2072503;84;27647;-72
2022/03/22 01:34:32;;;;;;;157.45;70.80;;;;;;;-1.12;54.40;102437.61;2069263;84;28692;-71
2022/03/22 01:37:34;;;;;;;153.23;67.97;;;;;;;-1.14;54.91;102434.03;2089640;84;31210;-71
2022/03/22 01:40:37;;;;;;;154.45;68.57;;;;;;;-1.13;54.81;102430.13;2063238;86;32955;-71
2022/03/22 01:43:39;;;;;;;154.75;70.62;;;;;;;-1.13;54.68;102425.30;2062358;86;30078;-70
2022/03/22 01:46:41;;;;;;;149.60;69.05;;;;;;;-1.14;54.62;102427.45;2063134;85;27685;-70
2022/03/22 01:49:43;;;;;;;132.95;59.85;;;;;;;-1.17;54.49;102422.09;2069081;85;29538;-70
2022/03/22 01:52:45;;;;;;;127.38;55.63;;;;;;;-1.19;54.96;102419.83;2041694;87;31044;-70
2022/03/22 01:55:47;;;;;;;133.05;58.28;;;;;;;-1.19;55.18;102415.88;2074071;85;33883;-71
2022/03/22 01:58:48;;;;;;;120.17;58.02;;;;;;;-1.18;54.97;102412.41;2074129;85;30332;-70
2022/03/22 02:08:35;;;;;;;123.05;55.52;;;;;;;-1.26;55.28;102401.64;2105802;84;31068;-71
2022/03/22 02:11:37;;;;;;;106.72;53.13;;;;;;;-1.28;55.19;102397.66;2106829;84;32953;-71
2022/03/22 02:14:39;;;;;;;112.28;51.68;;;;;;;-1.26;55.17;102393.75;2079633;84;29336;-71
2022/03/22 02:17:45;;;;;;;100.87;49.45;;;;;;;-1.27;55.11;102392.87;2074880;84;27669;-71
2022/03/22 02:20:48;;;;;;;99.87;47.93;;;;;;;-1.28;55.03;102395.44;2074102;85;29152;-71
2022/03/22 02:23:56;;;;;;;97.50;48.13;;;;;;;-1.30;55.13;102399.34;2100836;84;31059;-71
2022/03/22 02:26:57;;;;;;;99.67;48.87;;;;;;;-1.31;55.20;102396.23;2101356;84;33047;-70
2022/03/22 02:29:59;;;;;;;101.67;48.58;;;;;;;-1.33;55.14;102404.48;2075605;84;29989;-71
2022/03/22 02:33:02;;;;;;;107.12;50.08;;;;;;;-1.35;55.14;102396.09;2078958;84;27704;-71
2022/03/22 02:36:04;;;;;;;103.20;49.18;;;;;;;-1.38;55.12;102392.91;2074535;84;29648;-71
2022/03/22 02:39:05;;;;;;;100.58;48.20;;;;;;;-1.41;55.24;102393.72;2102176;84;31034;-71
2022/03/22 02:42:08;;;;;;;97.08;46.65;;;;;;;-1.40;55.51;102398.53;2085314;84;32370;-71
2022/03/22 02:45:11;;;;;;;103.05;48.87;;;;;;;-1.41;55.27;102393.72;2076488;84;29350;-70
2022/03/22 02:48:13;;;;;;;103.67;48.73;;;;;;;-1.42;55.47;102396.30;2075053;84;27721;-70
2022/03/22 02:51:15;;;;;;;93.60;47.58;;;;;;;-1.44;55.33;102396.67;2104043;84;28674;-70
2022/03/22 02:54:17;;;;;;;96.08;48.20;;;;;;;-1.47;55.35;102394.81;2076572;84;31030;-70
2022/03/22 02:57:19;;;;;;;100.58;48.45;;;;;;;-1.49;55.39;102398.23;2071631;84;32957;-71
2022/03/22 03:00:23;;;;;;;103.97;48.38;;;;;;;-1.54;55.58;102402.91;2071195;86;29349;-70
2022/03/22 03:03:24;;;;;;;102.72;47.13;;;;;;;-1.57;55.61;102408.05;2093435;84;28266;-71
2022/03/22 03:06:28;;;;;;;95.00;49.90;;;;;;;-1.61;55.57;102417.09;2093520;84;29430;-70
2022/03/22 03:09:29;;;;;;;107.43;50.52;;;;;;;-1.63;55.61;102411.80;2071548;84;31003;-72
2022/03/22 03:12:31;;;;;;;99.75;46.58;;;;;;;-1.64;55.60;102415.67;2071623;84;32949;-71
2022/03/22 03:15:32;;;;;;;99.22;47.45;;;;;;;-1.66;55.65;102415.63;2071445;86;29321;-69
2022/03/22 03:18:34;;;;;;;102.32;47.23;;;;;;;-1.70;55.60;102413.33;2095418;84;27753;-70
2022/03/22 03:21:37;;;;;;;97.95;46.25;;;;;;;-1.71;55.71;102417.19;2105690;84;29263;-70
2022/03/22 03:24:39;;;;;;;90.65;46.40;;;;;;;-1.74;55.70;102417.11;2076484;84;31711;-70
2022/03/22 03:27:41;;;;;;;95.47;46.53;;;;;;;-1.77;55.77;102420.50;2084467;84;32956;-70
2022/03/22 03:30:43;;;;;;;97.62;46.45;;;;;;;-1.79;55.68;102422.61;2105864;84;29379;-70
2022/03/22 03:33:44;;;;;;;98.00;46.02;;;;;;;-1.79;55.81;102422.61;2086304;84;27683;-70
2022/03/22 03:36:46;;;;;;;96.20;44.95;;;;;;;-1.82;55.81;102422.09;2085657;84;29459;-72
2022/03/22 03:39:48;;;;;;;91.78;43.00;;;;;;;-1.85;55.89;102419.34;2105154;84;30999;-71
2022/03/22 03:42:50;;;;;;;97.12;47.20;;;;;;;-1.88;55.93;102425.36;2096183;84;33892;-70
2022/03/22 03:49:12;;;;;;;95.03;46.92;;;;;;;-1.91;56.19;102429.63;2105890;84;27755;-70
2022/03/22 03:52:23;;;;;;;95.42;45.85;;;;;;;-1.93;56.10;102433.52;2105020;84;29518;-70
2022/03/22 03:55:25;;;;;;;98.12;45.63;;;;;;;-1.95;56.18;102440.45;2071007;86;31667;-70
2022/03/22 03:58:27;;;;;;;102.97;44.90;;;;;;;-1.96;56.34;102427.23;2069716;86;34097;-69
2022/03/22 04:01:28;;;;;;;105.45;48.68;;;;;;;-1.99;56.36;102438.53;2084510;84;29324;-69
2022/03/22 04:04:30;;;;;;;92.55;45.25;;;;;;;-2.01;56.44;102433.64;2102189;84;27724;-70
2022/03/22 04:07:32;;;;;;;87.67;43.63;;;;;;;-2.04;56.52;102437.06;2069332;86;28632;-69
2022/03/22 04:10:34;;;;;;;91.02;44.48;;;;;;;-2.07;56.45;102434.31;2068712;86;31018;-69
2022/03/22 04:13:36;;;;;;;88.07;45.12;;;;;;;-2.10;56.55;102434.19;2071122;84;32966;-70
2022/03/22 04:16:38;;;;;;;88.05;44.03;;;;;;;-2.11;56.55;102438.97;2071193;86;30170;-74
2022/03/22 04:19:40;;;;;;;89.80;42.70;;;;;;;-2.14;56.72;102434.50;2071943;84;27698;-71
2022/03/22 04:22:42;;;;;;;84.77;43.38;;;;;;;-2.15;56.74;102435.78;2071217;84;28804;-70
2022/03/22 04:25:44;;;;;;;79.95;40.63;;;;;;;-2.17;56.89;102445.32;2052443;86;31055;-71
2022/03/22 04:35:28;;;;;;;83.50;42.78;;;;;;;-2.24;56.99;102446.83;2078956;84;27684;-75
2022/03/22 04:38:30;;;;;;;83.95;41.53;;;;;;;-2.26;56.98;102448.49;2078641;84;28652;-71
2022/03/22 04:41:32;;;;;;;91.17;45.50;;;;;;;-2.29;57.04;102447.94;2071313;86;31183;-72
2022/03/22 04:44:34;;;;;;;90.53;44.53;;;;;;;-2.30;57.07;102451.83;2080721;84;32943;-71
2022/03/22 04:47:36;;;;;;;87.30;43.50;;;;;;;-2.33;57.16;102444.74;2105972;84;29319;-71
2022/03/22 04:50:38;;;;;;;89.05;44.00;;;;;;;-2.33;57.20;102460.49;2084656;84;27786;-72
2022/03/22 04:57:02;;;;;;;105.50;49.73;;;;;;;-2.33;57.30;102453.93;2032539;87;31151;-71
2022/03/22 05:00:06;;;;;;;110.35;51.37;;;;;;;-2.31;57.57;102456.59;2024232;86;33766;-71
2022/03/22 05:03:08;;;;;;;118.10;54.35;;;;;;;-2.30;57.58;102454.45;2017504;86;29349;-70
2022/03/22 05:06:35;;;;;;;145.62;61.35;;;;;;;-2.27;57.66;102456.30;2017073;87;27741;-71
2022/03/22 05:09:31;;;;;;;130.18;58.73;;;;;;;-2.25;57.67;102458.56;2016565;86;28829;-70
2022/03/22 05:12:37;;;;;;;144.77;60.75;;;;;;;-2.22;57.73;102463.94;2016740;88;31933;-70
2022/03/22 05:15:37;;;;;;;149.47;60.50;;;;;;;-2.18;57.77;102469.79;2068937;86;33799;-70
2022/03/22 05:18:39;;;;;;;153.12;64.25;;;;;;;-2.15;57.69;102465.97;2069150;86;28754;-70
2022/03/22 05:21:41;;;;;;;147.27;65.47;;;;;;;-2.09;57.80;102457.43;2090923;84;27710;-70
2022/03/22 05:24:43;;;;;;;141.37;62.58;;;;;;;-2.04;57.85;102458.47;2098366;84;28654;-70
2022/03/22 05:27:45;;;;;;;109.75;47.45;;;;;;;-1.99;57.88;102461.77;2098319;84;31923;-70
2022/03/22 05:30:49;;;;;;;118.55;52.67;;;;;;;-1.92;57.84;102452.39;2085022;84;33050;-70
2022/03/22 05:33:52;;;;;;;126.70;54.65;;;;;;;-1.82;57.77;102451.39;2097549;84;29499;-69
2022/03/22 05:36:54;;;;;;;81.15;38.67;;;;;;;-1.74;57.97;102445.58;2091038;84;27698;-70
2022/03/22 05:39:55;;;;;;;119.62;54.83;;;;;;;-1.63;57.71;102457.80;2072925;84;29429;-71
2022/03/22 05:42:58;;;;;;;93.45;42.60;;;;;;;-1.50;57.87;102456.91;2070790;84;31007;-71
2022/03/22 05:45:59;;;;;;;82.92;40.15;;;;;;;-1.38;57.68;102455.61;2068785;86;33120;-71
2022/03/22 05:49:01;;;;;;;75.85;38.50;;;;;;;-1.20;57.50;102453.14;2062057;85;29530;-71
2022/03/22 05:52:05;;;;;;;77.25;38.20;;;;;;;-1.03;57.26;102452.38;2052951;86;27704;-70
2022/03/22 05:55:08;;;;;;;74.27;36.50;;;;;;;-0.84;57.28;102457.84;2051188;86;28710;-71
2022/03/22 05:58:11;;;;;;;73.20;36.28;;;;;;;-0.66;57.11;102453.58;2052246;86;31032;-72
2022/03/22 06:01:12;;;;;;;76.28;35.78;;;;;;;-0.47;56.91;102461.62;2028782;87;33005;-73
2022/03/22 06:04:14;;;;;;;74.80;36.03;;;;;;;-0.24;56.70;102454.85;2044120;87;30001;-73
2022/03/22 06:07:19;;;;;;;72.67;35.15;;;;;;;-0.01;56.29;102454.21;2044156;87;27718;-73
2022/03/22 06:10:20;;;;;;;67.47;33.33;;;;;;;0.26;56.05;102458.91;2041632;87;28639;-74
2022/03/22 06:13:22;;;;;;;77.17;37.20;;;;;;;0.53;55.86;102457.88;2043476;87;31198;-73
2022/03/22 06:16:23;;;;;;;73.83;35.60;;;;;;;0.86;55.47;102454.33;2041443;87;32997;-73
2022/03/22 06:19:25;;;;;;;70.30;34.90;;;;;;;1.30;54.91;102454.97;2052976;86;29515;-74
2022/03/22 06:22:27;;;;;;;68.07;35.63;;;;;;;1.77;54.77;102463.08;2068883;86;27815;-73
2022/03/22 06:25:29;;;;;;;66.80;33.88;;;;;;;2.28;54.48;102459.28;2070002;86;28826;-71
2022/03/22 06:28:31;;;;;;;66.65;36.00;;;;;;;2.80;53.72;102453.19;2070021;86;30971;-72
2022/03/22 06:31:34;;;;;;;65.25;35.73;;;;;;;3.28;52.94;102457.51;2059172;85;32960;-72
2022/03/22 06:34:36;;;;;;;68.90;36.68;;;;;;;3.82;52.50;102451.20;2053022;86;29350;-72
2022/03/22 06:37:39;;;;;;;74.05;38.98;;;;;;;4.38;51.92;102454.98;2053167;86;28543;-73
2022/03/22 06:40:41;;;;;;;70.32;37.40;;;;;;;4.83;51.30;102451.46;2058826;86;29526;-72
2022/03/22 06:43:43;;;;;;;71.70;38.35;;;;;;;5.30;50.86;102451.38;2070119;86;31825;-73
2022/03/22 06:46:45;;;;;;;78.02;38.75;;;;;;;5.67;50.33;102451.17;2070098;86;32943;-73
2022/03/22 06:49:47;;;;;;;80.45;41.02;;;;;;;6.06;50.04;102447.84;2068617;84;29317;-73
2022/03/22 06:52:48;;;;;;;78.97;39.30;;;;;;;6.44;48.87;102449.30;2018160;88;27675;-73
2022/03/22 06:55:51;;;;;;;76.60;42.25;;;;;;;6.78;48.34;102444.93;2017908;88;28671;-72
2022/03/22 06:58:53;;;;;;;81.32;40.15;;;;;;;7.16;47.91;102444.48;2017774;88;31923;-72
2022/03/22 07:01:55;;;;;;;77.42;42.00;;;;;;;7.56;47.31;102444.87;2053812;86;33881;-73
2022/03/22 07:04:56;;;;;;;77.72;41.85;;;;;;;8.00;46.99;102441.16;2036154;87;29953;-73
2022/03/22 07:07:59;;;;;;;81.95;42.30;;;;;;;8.47;46.61;102448.92;2050594;86;27704;-73
2022/03/22 07:14:25;;;;;;;77.75;41.60;;;;;;;9.39;44.96;102440.64;2050379;86;31079;-73
2022/03/22 07:17:27;;;;;;;84.72;45.08;;;;;;;9.94;45.02;102438.69;2049276;86;33029;-72
2022/03/22 07:20:29;;;;;;;73.57;43.13;;;;;;;10.33;44.15;102437.74;2049562;86;29351;-74
2022/03/22 07:23:31;;;;;;;76.57;44.95;;;;;;;10.72;43.42;102435.42;2049163;86;28215;-72
2022/03/22 07:26:33;;;;;;;85.12;46.92;;;;;;;11.07;43.00;102435.30;2048369;86;28804;-74
2022/03/22 07:29:35;;;;;;;74.60;43.50;;;;;;;11.37;41.55;102437.00;2049262;86;31724;-73
2022/03/22 07:32:38;;;;;;;85.38;44.63;;;;;;;11.52;41.16;102438.96;2051092;86;32974;-73
2022/03/22 07:35:41;;;;;;;75.78;45.55;;;;;;;11.91;40.92;102435.06;2050916;86;29405;-74
2022/03/22 07:38:43;;;;;;;79.82;43.58;;;;;;;12.13;40.70;102436.86;2049359;86;27707;-73
2022/03/22 07:41:44;;;;;;;82.33;45.35;;;;;;;12.43;40.42;102436.19;2058943;86;28613;-73
2022/03/22 07:44:46;;;;;;;80.25;43.68;;;;;;;12.81;39.63;102433.53;2044743;87;31791;-73
2022/03/22 07:47:48;;;;;;;75.10;45.03;;;;;;;13.16;39.19;102429.94;2044522;87;32961;-73
2022/03/22 07:54:10;;;;;;;82.08;50.20;;;;;;;13.63;38.19;102435.00;2021401;87;27903;-74
2022/03/22 07:57:12;;;;;;;83.10;47.75;;;;;;;13.74;37.87;102437.84;2052939;86;28699;-73
2022/03/22 08:00:18;;;;;;;81.32;48.95;;;;;;;14.02;37.54;102432.53;2032679;86;31102;-74
2022/03/22 08:03:19;;;;;;;80.90;48.35;;;;;;;14.36;37.15;102428.80;2052508;86;32361;-73
2022/03/22 08:06:21;;;;;;;87.95;51.48;;;;;;;14.47;35.75;102430.27;2052668;86;29472;-73
2022/03/22 08:09:23;;;;;;;82.22;50.23;;;;;;;14.54;35.74;102427.80;2069259;86;27679;-74
2022/03/22 08:12:26;;;;;;;85.35;51.98;;;;;;;14.59;35.17;102424.02;2070218;85;28643;-74
2022/03/22 08:15:29;;;;;;;84.65;49.40;;;;;;;14.82;35.19;102429.14;2070024;85;31831;-74
2022/03/22 08:18:32;;;;;;;84.10;50.58;;;;;;;15.00;34.32;102426.76;2059426;85;33785;-74
2022/03/22 08:21:34;;;;;;;89.37;53.20;;;;;;;14.95;33.55;102419.31;2052115;86;29331;-73
2022/03/22 08:24:37;;;;;;;101.85;52.80;;;;;;;15.01;34.10;102419.08;2051617;86;28237;-74
2022/03/22 08:27:39;;;;;;;85.67;52.05;;;;;;;15.22;33.92;102424.23;2057656;86;29471;-73
2022/03/22 08:30:42;;;;;;;85.70;52.33;;;;;;;15.35;33.17;102417.90;2069128;86;31034;-72
2022/03/22 08:33:45;;;;;;;97.37;56.65;;;;;;;15.49;33.57;102418.28;2069983;85;33092;-73
2022/03/22 08:36:46;;;;;;;83.67;51.30;;;;;;;15.53;33.17;102412.32;2066246;85;30129;-73
2022/03/22 08:39:48;;;;;;;90.28;51.53;;;;;;;15.53;33.17;102412.32;2048264;86;27697;-73
2022/03/22 08:42:53;;;;;;;87.15;53.13;;;;;;;15.52;33.12;102415.06;2051490;86;28670;-73
2022/03/22 08:45:56;;;;;;;95.97;53.38;;;;;;;15.48;32.76;102418.34;2050449;86;32375;-71
2022/03/22 08:48:58;;;;;;;95.60;53.50;;;;;;;15.30;32.79;102413.16;2055755;86;32967;-73
2022/03/22 08:52:01;;;;;;;92.27;52.78;;;;;;;15.08;32.67;102413.90;2053097;86;29989;-71
2022/03/22 08:55:05;;;;;;;89.60;53.45;;;;;;;14.98;32.60;102411.08;2051260;86;27681;-72
2022/03/22 08:58:09;;;;;;;89.30;51.53;;;;;;;14.78;32.18;102400.97;2051719;86;28838;-74
2022/03/22 09:01:11;;;;;;;90.90;54.50;;;;;;;14.56;32.03;102402.53;2052966;86;31073;-74
2022/03/22 09:07:33;;;;;;;88.65;51.40;;;;;;;14.52;32.67;102398.65;2051576;86;30198;-72
2022/03/22 09:10:36;;;;;;;89.17;54.33;;;;;;;14.54;32.19;102396.31;2051687;86;27750;-73
2022/03/22 09:13:40;;;;;;;79.32;43.92;;;;;;;14.49;31.91;102390.66;2050848;86;28635;-74
2022/03/22 09:16:42;;;;;;;73.62;45.90;;;;;;;14.54;31.59;102391.39;2051079;86;31681;-73
2022/03/22 09:19:43;;;;;;;80.30;47.45;;;;;;;14.57;31.66;102385.87;2053281;86;32950;-73
2022/03/22 09:22:48;;;;;;;81.60;48.40;;;;;;;14.68;32.06;102382.41;2051365;86;29884;-73
2022/03/22 09:25:50;;;;;;;84.07;49.63;;;;;;;14.77;31.12;102381.22;2050418;86;27705;-73
2022/03/22 09:28:53;;;;;;;81.67;48.08;;;;;;;14.73;31.11;102380.89;2052136;86;28126;-73
2022/03/22 09:31:56;;;;;;;70.17;42.10;;;;;;;14.76;31.36;102375.85;2050981;86;31077;-73
2022/03/22 09:35:01;;;;;;;67.97;41.23;;;;;;;14.81;30.77;102373.89;2051293;86;33030;-72
2022/03/22 09:38:03;;;;;;;67.97;39.90;;;;;;;14.82;30.54;102372.47;2053046;86;28496;-75
2022/03/22 09:41:07;;;;;;;72.00;40.48;;;;;;;14.81;30.34;102369.36;2053001;86;27677;-75
2022/03/22 09:44:09;;;;;;;64.72;38.15;;;;;;;14.79;29.85;102364.96;2053020;86;28698;-75
2022/03/22 09:47:11;;;;;;;69.37;39.92;;;;;;;14.74;30.17;102363.30;2045660;86;31173;-73
2022/03/22 09:50:15;;;;;;;62.70;37.53;;;;;;;14.79;30.22;102358.22;2080590;84;32979;-73
2022/03/22 09:53:18;;;;;;;55.05;32.67;;;;;;;14.78;29.73;102361.39;2106543;84;29399;-73
2022/03/22 09:56:20;;;;;;;52.58;33.02;;;;;;;14.84;29.27;102353.07;2096053;84;27603;-74
2022/03/22 09:59:21;;;;;;;58.10;32.35;;;;;;;14.85;29.23;102355.32;2071146;86;29578;-75
2022/03/22 10:02:29;;;;;;;47.93;29.02;;;;;;;14.88;29.21;102355.22;2071173;85;31727;-75
2022/03/22 10:05:34;;;;;;;51.73;32.78;;;;;;;14.97;29.12;102349.48;2070600;84;32972;-75
2022/03/22 10:08:50;;;;;;;52.60;32.65;;;;;;;15.02;29.06;102354.71;2075189;84;29457;-75
2022/03/22 10:11:52;;;;;;;44.80;27.87;;;;;;;15.04;28.74;102348.80;2106655;84;27844;-75
2022/03/22 10:14:54;;;;;;;46.63;30.00;;;;;;;15.06;27.82;102344.71;2072652;84;28737;-75
2022/03/22 10:18:07;;;;;;;52.88;31.55;;;;;;;15.01;28.17;102348.45;2045621;86;31962;-76
2022/03/22 10:21:09;;;;;;;46.08;26.82;;;;;;;15.02;28.20;102344.81;2071226;86;33080;-74
2022/03/22 10:24:18;;;;;;;44.45;27.02;;;;;;;15.06;28.00;102346.06;2071360;86;29477;-73
2022/03/22 10:27:31;;;;;;;53.68;30.10;;;;;;;15.07;28.01;102341.05;2090644;84;28273;-74
2022/03/22 10:30:35;;;;;;;46.42;28.20;;;;;;;15.11;27.88;102349.45;2106457;84;28666;-73
2022/03/22 10:33:37;;;;;;;48.87;29.40;;;;;;;15.16;27.62;102346.13;2106431;84;31035;-74
2022/03/22 10:36:41;;;;;;;51.65;27.75;;;;;;;15.20;27.44;102343.74;2069499;85;33037;-74
2022/03/22 10:39:42;;;;;;;49.40;28.85;;;;;;;15.18;27.47;102341.08;2069261;86;29499;-75
2022/03/22 10:42:45;;;;;;;45.23;28.32;;;;;;;15.22;27.79;102335.58;2071062;86;27631;-73
2022/03/22 10:45:52;;;;;;;46.65;28.65;;;;;;;15.23;27.11;102330.59;2046762;84;28732;-74
2022/03/22 10:49:05;;;;;;;45.67;27.05;;;;;;;15.24;26.80;102325.60;2070572;86;31055;-73
2022/03/22 10:52:09;;;;;;;46.35;28.07;;;;;;;15.26;26.66;102328.65;2068887;85;33020;-75
2022/03/22 10:55:10;;;;;;;47.00;28.30;;;;;;;15.25;26.64;102320.62;2069395;86;29380;-74
2022/03/22 10:58:14;;;;;;;46.05;27.82;;;;;;;15.24;27.06;102325.60;2071693;84;27692;-74
2022/03/22 11:01:16;;;;;;;49.98;28.05;;;;;;;15.28;27.22;102313.76;2071295;86;29499;-74
2022/03/22 11:04:21;;;;;;;44.03;26.20;;;;;;;15.34;27.02;102310.81;2045829;86;31071;-75
2022/03/22 11:07:25;;;;;;;44.75;27.85;;;;;;;15.41;26.84;102314.16;2091490;84;33763;-74
2022/03/22 11:10:29;;;;;;;44.18;27.30;;;;;;;15.47;26.72;102309.41;2106456;84;28784;-76
2022/03/22 11:13:30;;;;;;;47.53;24.82;;;;;;;15.48;25.84;102307.11;2106543;84;27694;-75
2022/03/22 11:16:34;;;;;;;34.73;21.82;;;;;;;15.47;26.07;102304.00;2104543;84;28696;-75
2022/03/22 11:19:36;;;;;;;39.58;23.05;;;;;;;15.44;25.41;102308.19;2046828;84;31993;-75
2022/03/22 11:22:51;;;;;;;37.85;23.80;;;;;;;15.42;25.92;102290.27;2071295;86;32966;-74
2022/03/22 11:25:53;;;;;;;38.28;23.67;;;;;;;15.47;25.93;102293.20;2070233;86;30170;-75
2022/03/22 11:28:55;;;;;;;38.30;23.02;;;;;;;15.52;25.92;102285.39;2079299;84;28365;-75
2022/03/22 11:35:25;;;;;;;38.08;24.57;;;;;;;15.68;25.80;102281.16;2085926;84;31130;-74
2022/03/22 11:38:48;;;;;;;39.03;23.95;;;;;;;15.73;25.71;102272.86;2105355;84;27891;-74
2022/03/22 11:45:13;;;;;;;35.03;23.00;;;;;;;15.74;25.13;102266.06;2094538;84;27698;-76
2022/03/22 11:48:16;;;;;;;36.10;23.17;;;;;;;15.76;25.44;102265.53;2049572;86;28668;-73
2022/03/22 11:51:24;;;;;;;29.95;19.45;;;;;;;15.79;25.20;102262.71;2072137;85;31114;-75
2022/03/22 11:54:29;;;;;;;27.82;17.60;;;;;;;15.78;23.55;102256.89;2046285;86;33729;-74
2022/03/22 11:57:52;;;;;;;34.03;19.57;;;;;;;15.73;24.11;102252.13;2075102;84;29343;-75
2022/03/22 12:01:00;;;;;;;31.20;19.73;;;;;;;15.72;24.00;102249.02;2074201;85;27705;-75
2022/03/22 12:04:05;;;;;;;32.38;18.90;;;;;;;15.71;23.89;102254.50;2072580;85;29238;-75
2022/03/22 12:07:07;;;;;;;35.25;21.90;;;;;;;15.70;23.91;102242.80;2076650;84;31108;-74
2022/03/22 12:10:12;;;;;;;28.62;17.57;;;;;;;15.68;24.15;102235.22;2082759;84;33615;-74
2022/03/22 12:13:14;;;;;;;32.08;19.73;;;;;;;15.71;24.08;102232.39;2073421;85;29283;-74
2022/03/22 12:16:16;;;;;;;28.42;17.65;;;;;;;15.76;24.05;102231.75;2074826;84;27686;-75
2022/03/22 12:19:31;;;;;;;24.82;15.83;;;;;;;15.81;23.37;102223.45;2105754;84;28688;-75
2022/03/22 12:22:34;;;;;;;25.32;16.55;;;;;;;15.83;23.65;102222.92;2080665;84;32073;-74
2022/03/22 12:25:37;;;;;;;25.92;17.57;;;;;;;15.88;23.71;102225.45;2049780;85;33083;-74
2022/03/22 12:28:52;;;;;;;27.60;17.12;;;;;;;15.91;23.73;102217.23;2073841;84;29320;-75
2022/03/22 12:31:55;;;;;;;51.45;35.03;;;;;;;15.93;23.80;102219.41;2072920;85;27728;-75
2022/03/22 12:34:59;;;;;;;28.45;18.42;;;;;;;15.92;23.23;102208.18;2071901;84;28675;-75
2022/03/22 12:38:02;;;;;;;25.77;16.32;;;;;;;15.93;23.31;102218.05;2075605;84;31050;-74
2022/03/22 12:41:03;;;;;;;22.35;14.70;;;;;;;15.93;23.38;102201.83;2096666;84;33802;-74
2022/03/22 12:44:06;;;;;;;24.23;14.95;;;;;;;15.94;22.48;102207.64;2074471;84;29302;-74
2022/03/22 12:47:09;;;;;;;27.40;16.42;;;;;;;15.97;22.79;102204.79;2045636;87;27774;-75
2022/03/22 12:50:13;;;;;;;25.40;16.73;;;;;;;15.99;22.59;102202.05;2076164;84;29452;-75
2022/03/22 12:53:15;;;;;;;23.27;15.25;;;;;;;16.01;22.63;102202.86;2082787;84;30979;-74
2022/03/22 12:56:20;;;;;;;28.38;16.05;;;;;;;16.01;22.51;102197.45;2105323;84;32475;-75
2022/03/22 12:59:23;;;;;;;27.58;17.55;;;;;;;16.03;22.58;102188.33;2106605;84;29959;-74
2022/03/22 13:02:25;;;;;;;28.95;16.85;;;;;;;15.97;22.63;102168.78;2079601;84;28317;-73
2022/03/22 13:05:27;;;;;;;28.30;19.75;;;;;;;15.97;22.63;102168.78;2060182;84;28751;-73
2022/03/22 13:11:26;;;;;;;29.67;19.77;;;;;;;16.11;22.83;102183.94;2040844;86;31789;-73
2022/03/22 13:11:35;;;;;;;31.67;20.83;;;;;;;16.12;22.90;102185.70;2067512;86;33168;-75
2022/03/22 13:17:59;;;;;;;30.68;18.75;;;;;;;16.14;22.20;102182.46;2070874;86;27733;-74
2022/03/22 13:21:01;;;;;;;29.60;19.15;;;;;;;16.15;22.72;102177.46;2080601;84;28719;-72
2022/03/22 13:24:17;;;;;;;31.23;20.40;;;;;;;16.03;22.44;102151.83;2106242;84;30496;-74
2022/03/22 13:27:18;;;;;;;32.63;19.80;;;;;;;16.19;22.83;102168.28;2103726;84;33059;-74
2022/03/22 13:30:22;;;;;;;33.05;18.95;;;;;;;16.27;22.62;102162.54;2055068;85;29350;-74
2022/03/22 13:33:29;;;;;;;28.52;16.82;;;;;;;16.27;22.62;102162.54;2070569;86;27715;-73
2022/03/22 13:36:31;;;;;;;22.27;15.43;;;;;;;16.29;22.37;102163.35;2051450;86;28683;-74
2022/03/22 13:39:42;;;;;;;18.95;12.30;;;;;;;16.34;22.62;102153.67;1997959;89;32239;-74
2022/03/22 13:43:06;;;;;;;19.87;12.58;;;;;;;16.21;21.35;102134.40;1997633;89;32996;-74
2022/03/22 13:46:08;;;;;;;19.37;12.37;;;;;;;16.32;21.43;102152.37;2028788;87;29413;-69
2022/03/22 13:49:10;;;;;;;17.90;12.55;;;;;;;16.33;21.25;102149.21;2018954;86;27819;-65
2022/03/22 13:52:11;;;;;;;22.02;13.35;;;;;;;16.34;21.57;102145.08;2012704;87;28640;-65
2022/03/22 13:55:17;;;;;;;18.70;13.40;;;;;;;16.21;21.18;102121.77;2039750;86;32367;-68
2022/03/22 13:58:22;;;;;;;23.38;12.60;;;;;;;16.32;20.97;102136.63;2067993;86;33813;-66
2022/03/22 14:01:24;;;;;;;21.07;12.82;;;;;;;16.32;20.97;102136.63;2071018;84;29391;-70
2022/03/22 14:04:26;;;;;;;20.52;13.15;;;;;;;16.34;21.05;102138.80;2073764;84;27819;-70
2022/03/22 14:07:28;;;;;;;25.40;16.30;;;;;;;16.35;21.61;102137.86;2106211;84;28641;-71
2022/03/22 14:10:30;;;;;;;28.15;17.42;;;;;;;16.22;22.05;102115.39;2053972;84;31255;-71
2022/03/22 14:13:32;;;;;;;28.87;19.07;;;;;;;16.31;21.93;102135.73;2070123;86;32996;-70
2022/03/22 14:16:33;;;;;;;24.07;14.23;;;;;;;16.28;21.95;102132.30;2068656;84;29347;-70
2022/03/22 14:19:36;;;;;;;24.82;16.60;;;;;;;16.27;21.98;102130.54;2065436;84;28294;-72
2022/03/22 14:22:37;;;;;;;27.05;16.65;;;;;;;16.24;22.10;102131.08;2106185;84;29666;-70
2022/03/22 14:25:39;;;;;;;41.13;18.80;;;;;;;16.22;22.37;102130.27;2106203;84;31055;-71
2022/03/22 14:28:48;;;;;;;25.77;17.73;;;;;;;16.20;22.53;102119.12;2100099;84;32448;-71